sensor_id;sensor_type;location;lat;lon;timestamp;pressure;altitude;pressure_sealevel;temperature;humidity
35331;BME280;21441;52.190;20.910;2023-02-01T00:00:32;98809.69;;;2.03;100.00
35331;BME280;21441;52.190;20.910;2023-02-01T00:03:21;98803.97;;;2.08;100.00
35331;BME280;21441;52.190;20.910;2023-02-01T00:05:55;98797.56;;;2.10;100.00
35331;BME280;21441;52.190;20.910;2023-02-01T00:08:23;98797.63;;;2.18;100.00
35331;BME280;21441;52.190;20.910;2023-02-01T00:10:58;98772.31;;;1.99;100.00
35331;BME280;21441;52.190;20.910;2023-02-01T00:13:27;98805.84;;;2.15;100.00
35331;BME280;21441;52.190;20.910;2023-02-01T00:15:54;98811.69;;;2.27;100.00
35331;BME280;21441;52.190;20.910;2023-02-01T00:18:23;98801.75;;;2.21;100.00
35331;BME280;21441;52.190;20.910;2023-02-01T00:20:51;98816.63;;;2.30;100.00
35331;BME280;21441;52.190;20.910;2023-02-01T00:23:18;98801.84;;;2.29;100.00
35331;BME280;21441;52.190;20.910;2023-02-01T00:25:45;98813.50;;;2.26;100.00
35331;BME280;21441;52.190;20.910;2023-02-01T00:28:12;98812.72;;;2.34;100.00
35331;BME280;21441;52.190;20.910;2023-02-01T00:30:40;98824.06;;;2.35;100.00
35331;BME280;21441;52.190;20.910;2023-02-01T00:33:07;98818.78;;;2.35;100.00
35331;BME280;21441;52.190;20.910;2023-02-01T00:35:36;98816.03;;;2.36;100.00
35331;BME280;21441;52.190;20.910;2023-02-01T00:38:03;98818.44;;;2.30;100.00
35331;BME280;21441;52.190;20.910;2023-02-01T00:40:31;98825.72;;;2.36;100.00
35331;BME280;21441;52.190;20.910;2023-02-01T00:42:58;98833.63;;;2.36;100.00
35331;BME280;21441;52.190;20.910;2023-02-01T00:45:26;98833.16;;;2.40;100.00
35331;BME280;21441;52.190;20.910;2023-02-01T00:47:53;98834.44;;;2.36;100.00
35331;BME280;21441;52.190;20.910;2023-02-01T00:50:20;98834.19;;;2.47;100.00
35331;BME280;21441;52.190;20.910;2023-02-01T00:52:49;98839.88;;;2.61;100.00
35331;BME280;21441;52.190;20.910;2023-02-01T00:55:17;98836.63;;;2.67;100.00
35331;BME280;21441;52.190;20.910;2023-02-01T00:57:44;98835.03;;;2.74;100.00
35331;BME280;21441;52.190;20.910;2023-02-01T01:00:12;98840.47;;;2.73;100.00
35331;BME280;21441;52.190;20.910;2023-02-01T01:02:39;98825.56;;;2.63;100.00
35331;BME280;21441;52.190;20.910;2023-02-01T01:05:08;98826.91;;;2.59;100.00
35331;BME280;21441;52.190;20.910;2023-02-01T01:07:35;98836.34;;;2.70;100.00
35331;BME280;21441;52.190;20.910;2023-02-01T01:10:05;98847.28;;;2.57;100.00
35331;BME280;21441;52.190;20.910;2023-02-01T01:12:33;98831.63;;;2.56;100.00
35331;BME280;21441;52.190;20.910;2023-02-01T01:15:00;98846.16;;;2.60;100.00
35331;BME280;21441;52.190;20.910;2023-02-01T01:17:27;98841.69;;;2.60;100.00
35331;BME280;21441;52.190;20.910;2023-02-01T01:19:55;98839.53;;;2.56;100.00
35331;BME280;21441;52.190;20.910;2023-02-01T01:22:22;98857.63;;;2.59;100.00
35331;BME280;21441;52.190;20.910;2023-02-01T01:24:50;98857.13;;;2.55;100.00
35331;BME280;21441;52.190;20.910;2023-02-01T01:27:18;98861.53;;;2.73;100.00
35331;BME280;21441;52.190;20.910;2023-02-01T01:29:50;98857.56;;;2.68;100.00
35331;BME280;21441;52.190;20.910;2023-02-01T01:32:17;98867.66;;;2.55;100.00
35331;BME280;21441;52.190;20.910;2023-02-01T01:34:44;98863.84;;;2.50;100.00
35331;BME280;21441;52.190;20.910;2023-02-01T01:37:12;98862.22;;;2.57;100.00
35331;BME280;21441;52.190;20.910;2023-02-01T01:39:39;98866.31;;;2.51;100.00
35331;BME280;21441;52.190;20.910;2023-02-01T01:42:10;98862.53;;;2.54;100.00
35331;BME280;21441;52.190;20.910;2023-02-01T01:45:00;98870.69;;;2.42;100.00
35331;BME280;21441;52.190;20.910;2023-02-01T01:47:31;98872.34;;;2.43;100.00
35331;BME280;21441;52.190;20.910;2023-02-01T01:50:02;98877.09;;;2.40;100.00
35331;BME280;21441;52.190;20.910;2023-02-01T01:52:30;98882.03;;;2.43;100.00
35331;BME280;21441;52.190;20.910;2023-02-01T01:54:58;98882.25;;;2.50;100.00
35331;BME280;21441;52.190;20.910;2023-02-01T01:57:28;98885.78;;;2.58;100.00
35331;BME280;21441;52.190;20.910;2023-02-01T02:00:04;98897.81;;;2.61;100.00
35331;BME280;21441;52.190;20.910;2023-02-01T02:02:33;98898.47;;;2.63;100.00
35331;BME280;21441;52.190;20.910;2023-02-01T02:05:01;98899.84;;;2.67;100.00
35331;BME280;21441;52.190;20.910;2023-02-01T02:07:31;98901.28;;;2.61;100.00
35331;BME280;21441;52.190;20.910;2023-02-01T02:10:03;98901.91;;;2.55;100.00
35331;BME280;21441;52.190;20.910;2023-02-01T02:12:31;98885.50;;;2.43;100.00
35331;BME280;21441;52.190;20.910;2023-02-01T02:15:01;98894.34;;;2.60;100.00
35331;BME280;21441;52.190;20.910;2023-02-01T02:17:34;98885.66;;;2.42;100.00
35331;BME280;21441;52.190;20.910;2023-02-01T02:20:39;98887.53;;;2.50;100.00
35331;BME280;21441;52.190;20.910;2023-02-01T02:23:33;98894.28;;;2.52;100.00
35331;BME280;21441;52.190;20.910;2023-02-01T02:26:24;98891.50;;;2.54;100.00
35331;BME280;21441;52.190;20.910;2023-02-01T02:32:10;98870.94;;;2.31;100.00
35331;BME280;21441;52.190;20.910;2023-02-01T02:34:46;98901.47;;;2.42;100.00
35331;BME280;21441;52.190;20.910;2023-02-01T02:37:27;98887.63;;;2.40;100.00
35331;BME280;21441;52.190;20.910;2023-02-01T02:40:04;98890.19;;;2.32;100.00
35331;BME280;21441;52.190;20.910;2023-02-01T02:42:38;98906.72;;;2.42;100.00
35331;BME280;21441;52.190;20.910;2023-02-01T02:45:42;98888.22;;;2.16;100.00
35331;BME280;21441;52.190;20.910;2023-02-01T02:48:33;98886.09;;;2.19;100.00
35331;BME280;21441;52.190;20.910;2023-02-01T02:51:09;98893.53;;;2.24;100.00
35331;BME280;21441;52.190;20.910;2023-02-01T02:54:00;98912.59;;;2.18;100.00
35331;BME280;21441;52.190;20.910;2023-02-01T02:56:47;98909.97;;;2.18;100.00
35331;BME280;21441;52.190;20.910;2023-02-01T02:59:34;98891.75;;;2.06;100.00
35331;BME280;21441;52.190;20.910;2023-02-01T03:02:20;98900.16;;;2.10;100.00
35331;BME280;21441;52.190;20.910;2023-02-01T03:05:06;98910.56;;;2.12;100.00
35331;BME280;21441;52.190;20.910;2023-02-01T03:07:55;98886.09;;;2.01;100.00
35331;BME280;21441;52.190;20.910;2023-02-01T03:10:27;98928.00;;;2.31;100.00
35331;BME280;21441;52.190;20.910;2023-02-01T03:13:01;98914.53;;;2.16;100.00
35331;BME280;21441;52.190;20.910;2023-02-01T03:15:32;98910.09;;;2.16;100.00
35331;BME280;21441;52.190;20.910;2023-02-01T03:18:07;98915.81;;;2.12;100.00
35331;BME280;21441;52.190;20.910;2023-02-01T03:20:38;98922.34;;;2.08;100.00
35331;BME280;21441;52.190;20.910;2023-02-01T03:23:10;98880.38;;;1.88;100.00
35331;BME280;21441;52.190;20.910;2023-02-01T03:25:39;98918.72;;;2.09;100.00
35331;BME280;21441;52.190;20.910;2023-02-01T03:28:08;98920.25;;;2.11;100.00
35331;BME280;21441;52.190;20.910;2023-02-01T03:30:40;98924.75;;;2.19;100.00
35331;BME280;21441;52.190;20.910;2023-02-01T03:33:11;98896.53;;;1.93;100.00
35331;BME280;21441;52.190;20.910;2023-02-01T03:35:52;98924.16;;;2.07;100.00
35331;BME280;21441;52.190;20.910;2023-02-01T03:38:26;98908.88;;;1.93;100.00
35331;BME280;21441;52.190;20.910;2023-02-01T03:41:00;98935.41;;;1.99;100.00
35331;BME280;21441;52.190;20.910;2023-02-01T03:43:33;98914.81;;;1.95;100.00
35331;BME280;21441;52.190;20.910;2023-02-01T03:46:05;98916.31;;;1.97;100.00
35331;BME280;21441;52.190;20.910;2023-02-01T03:48:36;98904.69;;;2.00;100.00
35331;BME280;21441;52.190;20.910;2023-02-01T03:51:05;98915.25;;;1.90;100.00
35331;BME280;21441;52.190;20.910;2023-02-01T03:53:36;98912.31;;;1.93;100.00
35331;BME280;21441;52.190;20.910;2023-02-01T03:56:04;98917.75;;;2.10;100.00
35331;BME280;21441;52.190;20.910;2023-02-01T03:58:33;98924.38;;;2.14;100.00
35331;BME280;21441;52.190;20.910;2023-02-01T04:01:01;98926.47;;;2.10;100.00
35331;BME280;21441;52.190;20.910;2023-02-01T04:03:29;98915.44;;;2.06;100.00
35331;BME280;21441;52.190;20.910;2023-02-01T04:05:58;98927.59;;;2.08;100.00
35331;BME280;21441;52.190;20.910;2023-02-01T04:08:25;98920.09;;;2.13;100.00
35331;BME280;21441;52.190;20.910;2023-02-01T04:10:54;98930.84;;;2.19;100.00
35331;BME280;21441;52.190;20.910;2023-02-01T04:13:21;98936.34;;;2.26;100.00
35331;BME280;21441;52.190;20.910;2023-02-01T04:15:49;98949.47;;;2.26;100.00
35331;BME280;21441;52.190;20.910;2023-02-01T04:18:16;98944.63;;;2.31;100.00
35331;BME280;21441;52.190;20.910;2023-02-01T04:20:44;98921.84;;;2.22;100.00
35331;BME280;21441;52.190;20.910;2023-02-01T04:23:11;98898.22;;;2.12;100.00
35331;BME280;21441;52.190;20.910;2023-02-01T04:25:39;98938.91;;;2.18;100.00
35331;BME280;21441;52.190;20.910;2023-02-01T04:28:08;98946.72;;;2.27;100.00
35331;BME280;21441;52.190;20.910;2023-02-01T04:30:36;98949.66;;;2.24;100.00
35331;BME280;21441;52.190;20.910;2023-02-01T04:33:04;98950.63;;;2.23;100.00
35331;BME280;21441;52.190;20.910;2023-02-01T04:35:32;98938.13;;;2.25;100.00
35331;BME280;21441;52.190;20.910;2023-02-01T04:38:00;98956.34;;;2.19;100.00
35331;BME280;21441;52.190;20.910;2023-02-01T04:40:27;98921.91;;;2.12;100.00
35331;BME280;21441;52.190;20.910;2023-02-01T04:42:54;98967.22;;;2.24;100.00
35331;BME280;21441;52.190;20.910;2023-02-01T04:45:23;98952.75;;;2.20;100.00
35331;BME280;21441;52.190;20.910;2023-02-01T04:47:51;98944.84;;;2.20;100.00
35331;BME280;21441;52.190;20.910;2023-02-01T04:50:18;98955.81;;;2.15;100.00
35331;BME280;21441;52.190;20.910;2023-02-01T04:52:46;98950.56;;;2.15;100.00
35331;BME280;21441;52.190;20.910;2023-02-01T04:55:13;98959.66;;;2.21;100.00
35331;BME280;21441;52.190;20.910;2023-02-01T04:57:41;98957.09;;;2.29;100.00
35331;BME280;21441;52.190;20.910;2023-02-01T05:00:09;98964.31;;;2.27;100.00
35331;BME280;21441;52.190;20.910;2023-02-01T05:02:38;98961.00;;;2.25;100.00
35331;BME280;21441;52.190;20.910;2023-02-01T05:05:06;98965.44;;;2.24;100.00
35331;BME280;21441;52.190;20.910;2023-02-01T05:07:34;98934.03;;;1.95;100.00
35331;BME280;21441;52.190;20.910;2023-02-01T05:10:01;98965.59;;;2.23;100.00
35331;BME280;21441;52.190;20.910;2023-02-01T05:12:29;98970.16;;;2.21;100.00
35331;BME280;21441;52.190;20.910;2023-02-01T05:15:15;98978.44;;;2.26;100.00
35331;BME280;21441;52.190;20.910;2023-02-01T05:17:43;98970.41;;;2.27;100.00
35331;BME280;21441;52.190;20.910;2023-02-01T05:20:11;98964.47;;;2.25;100.00
35331;BME280;21441;52.190;20.910;2023-02-01T05:22:38;98962.13;;;2.22;100.00
35331;BME280;21441;52.190;20.910;2023-02-01T05:25:07;98966.28;;;2.25;100.00
35331;BME280;21441;52.190;20.910;2023-02-01T05:27:35;98958.38;;;2.25;100.00
35331;BME280;21441;52.190;20.910;2023-02-01T05:30:03;98951.16;;;2.27;100.00
35331;BME280;21441;52.190;20.910;2023-02-01T05:32:30;98964.69;;;2.32;100.00
35331;BME280;21441;52.190;20.910;2023-02-01T05:34:59;98936.19;;;2.27;100.00
35331;BME280;21441;52.190;20.910;2023-02-01T05:37:27;98953.34;;;2.32;100.00
35331;BME280;21441;52.190;20.910;2023-02-01T05:39:55;98961.47;;;2.38;100.00
35331;BME280;21441;52.190;20.910;2023-02-01T05:42:22;98937.19;;;2.26;100.00
35331;BME280;21441;52.190;20.910;2023-02-01T05:44:50;98958.03;;;2.10;100.00
35331;BME280;21441;52.190;20.910;2023-02-01T05:47:17;98944.97;;;2.00;100.00
35331;BME280;21441;52.190;20.910;2023-02-01T05:49:46;98958.94;;;2.01;100.00
35331;BME280;21441;52.190;20.910;2023-02-01T05:52:14;98949.53;;;1.98;100.00
35331;BME280;21441;52.190;20.910;2023-02-01T05:54:45;98961.44;;;2.02;100.00
35331;BME280;21441;52.190;20.910;2023-02-01T05:57:13;98959.19;;;2.08;100.00
35331;BME280;21441;52.190;20.910;2023-02-01T05:59:41;98954.06;;;2.06;100.00
35331;BME280;21441;52.190;20.910;2023-02-01T06:02:10;98951.50;;;2.14;100.00
35331;BME280;21441;52.190;20.910;2023-02-01T06:04:38;98937.00;;;2.10;100.00
35331;BME280;21441;52.190;20.910;2023-02-01T06:07:06;98948.44;;;2.19;100.00
35331;BME280;21441;52.190;20.910;2023-02-01T06:09:36;98960.09;;;2.16;100.00
35331;BME280;21441;52.190;20.910;2023-02-01T06:12:04;98958.72;;;2.12;100.00
35331;BME280;21441;52.190;20.910;2023-02-01T06:14:32;98955.41;;;2.10;100.00
35331;BME280;21441;52.190;20.910;2023-02-01T06:16:59;98954.00;;;2.16;100.00
35331;BME280;21441;52.190;20.910;2023-02-01T06:19:27;98938.22;;;2.16;100.00
35331;BME280;21441;52.190;20.910;2023-02-01T06:21:54;98926.94;;;2.23;100.00
35331;BME280;21441;52.190;20.910;2023-02-01T06:24:22;98958.38;;;2.25;100.00
35331;BME280;21441;52.190;20.910;2023-02-01T06:26:50;98950.63;;;2.23;100.00
35331;BME280;21441;52.190;20.910;2023-02-01T06:29:18;98949.47;;;2.26;100.00
35331;BME280;21441;52.190;20.910;2023-02-01T06:31:45;98952.53;;;2.31;100.00
35331;BME280;21441;52.190;20.910;2023-02-01T06:34:13;98944.00;;;2.19;100.00
35331;BME280;21441;52.190;20.910;2023-02-01T06:36:40;98935.88;;;2.13;100.00
35331;BME280;21441;52.190;20.910;2023-02-01T06:39:07;98939.81;;;2.26;100.00
35331;BME280;21441;52.190;20.910;2023-02-01T06:41:35;98939.94;;;2.25;100.00
35331;BME280;21441;52.190;20.910;2023-02-01T06:44:04;98955.75;;;2.25;100.00
35331;BME280;21441;52.190;20.910;2023-02-01T06:46:31;98929.75;;;2.22;100.00
35331;BME280;21441;52.190;20.910;2023-02-01T06:48:59;98924.31;;;2.23;100.00
35331;BME280;21441;52.190;20.910;2023-02-01T06:51:27;98934.59;;;2.35;100.00
35331;BME280;21441;52.190;20.910;2023-02-01T06:53:56;98946.56;;;2.29;100.00
35331;BME280;21441;52.190;20.910;2023-02-01T06:56:23;98931.47;;;2.31;100.00
35331;BME280;21441;52.190;20.910;2023-02-01T06:58:51;98923.41;;;2.33;100.00
35331;BME280;21441;52.190;20.910;2023-02-01T07:01:20;98928.44;;;2.26;100.00
35331;BME280;21441;52.190;20.910;2023-02-01T07:03:50;98944.91;;;2.28;100.00
35331;BME280;21441;52.190;20.910;2023-02-01T07:06:17;98938.00;;;2.27;100.00
35331;BME280;21441;52.190;20.910;2023-02-01T07:08:45;98943.84;;;2.39;100.00
35331;BME280;21441;52.190;20.910;2023-02-01T07:11:14;98963.88;;;2.32;100.00
35331;BME280;21441;52.190;20.910;2023-02-01T07:13:44;98917.31;;;2.32;100.00
35331;BME280;21441;52.190;20.910;2023-02-01T07:16:13;98919.81;;;2.34;100.00
35331;BME280;21441;52.190;20.910;2023-02-01T07:18:42;98933.56;;;2.27;100.00
35331;BME280;21441;52.190;20.910;2023-02-01T07:21:10;98932.19;;;2.41;100.00
35331;BME280;21441;52.190;20.910;2023-02-01T07:23:38;98925.59;;;2.55;100.00
35331;BME280;21441;52.190;20.910;2023-02-01T07:26:06;98950.72;;;2.50;100.00
35331;BME280;21441;52.190;20.910;2023-02-01T07:28:35;98958.75;;;2.84;100.00
35331;BME280;21441;52.190;20.910;2023-02-01T07:31:03;98946.03;;;2.79;100.00
35331;BME280;21441;52.190;20.910;2023-02-01T07:33:31;98943.41;;;2.79;100.00
35331;BME280;21441;52.190;20.910;2023-02-01T07:36:03;98936.16;;;2.63;100.00
35331;BME280;21441;52.190;20.910;2023-02-01T07:38:31;98928.94;;;2.65;100.00
35331;BME280;21441;52.190;20.910;2023-02-01T07:40:59;98958.22;;;2.62;100.00
35331;BME280;21441;52.190;20.910;2023-02-01T07:43:27;98950.78;;;2.58;100.00
35331;BME280;21441;52.190;20.910;2023-02-01T07:45:55;98963.94;;;2.58;100.00
35331;BME280;21441;52.190;20.910;2023-02-01T07:48:23;98962.13;;;2.58;100.00
35331;BME280;21441;52.190;20.910;2023-02-01T07:50:57;98947.34;;;2.57;100.00
35331;BME280;21441;52.190;20.910;2023-02-01T07:53:28;98951.59;;;2.58;100.00
35331;BME280;21441;52.190;20.910;2023-02-01T07:55:56;98950.00;;;2.65;100.00
35331;BME280;21441;52.190;20.910;2023-02-01T07:58:24;98910.84;;;2.62;100.00
35331;BME280;21441;52.190;20.910;2023-02-01T08:00:55;98943.16;;;2.55;100.00
35331;BME280;21441;52.190;20.910;2023-02-01T08:03:40;98928.28;;;2.63;100.00
35331;BME280;21441;52.190;20.910;2023-02-01T08:06:07;98921.91;;;2.66;100.00
35331;BME280;21441;52.190;20.910;2023-02-01T08:08:36;98939.09;;;2.78;100.00
35331;BME280;21441;52.190;20.910;2023-02-01T08:11:06;98934.59;;;2.71;100.00
35331;BME280;21441;52.190;20.910;2023-02-01T08:13:34;98934.44;;;2.72;100.00
35331;BME280;21441;52.190;20.910;2023-02-01T08:16:03;98936.91;;;2.74;100.00
35331;BME280;21441;52.190;20.910;2023-02-01T08:18:31;98928.94;;;2.65;100.00
35331;BME280;21441;52.190;20.910;2023-02-01T08:21:03;98911.38;;;2.66;100.00
35331;BME280;21441;52.190;20.910;2023-02-01T08:23:31;98922.72;;;2.66;100.00
35331;BME280;21441;52.190;20.910;2023-02-01T08:26:09;98910.59;;;2.74;100.00
35331;BME280;21441;52.190;20.910;2023-02-01T08:28:37;98940.91;;;2.78;100.00
35331;BME280;21441;52.190;20.910;2023-02-01T08:31:07;98937.94;;;2.99;100.00
35331;BME280;21441;52.190;20.910;2023-02-01T08:33:35;98933.34;;;3.01;100.00
35331;BME280;21441;52.190;20.910;2023-02-01T08:36:04;98938.03;;;2.89;100.00
35331;BME280;21441;52.190;20.910;2023-02-01T08:38:34;98930.25;;;2.87;100.00
35331;BME280;21441;52.190;20.910;2023-02-01T08:41:05;98929.91;;;2.82;100.00
35331;BME280;21441;52.190;20.910;2023-02-01T08:43:34;98934.16;;;2.75;100.00
35331;BME280;21441;52.190;20.910;2023-02-01T08:46:02;98924.78;;;2.81;100.00
35331;BME280;21441;52.190;20.910;2023-02-01T08:48:31;98938.28;;;2.78;100.00
35331;BME280;21441;52.190;20.910;2023-02-01T08:51:01;98939.47;;;2.83;100.00
35331;BME280;21441;52.190;20.910;2023-02-01T08:53:29;98934.66;;;2.79;100.00
35331;BME280;21441;52.190;20.910;2023-02-01T08:55:57;98921.13;;;2.74;100.00
35331;BME280;21441;52.190;20.910;2023-02-01T08:58:25;98962.41;;;2.91;100.00
35331;BME280;21441;52.190;20.910;2023-02-01T09:00:54;98953.75;;;2.99;100.00
35331;BME280;21441;52.190;20.910;2023-02-01T09:03:22;98926.81;;;2.87;100.00
35331;BME280;21441;52.190;20.910;2023-02-01T09:05:49;98970.84;;;2.95;100.00
35331;BME280;21441;52.190;20.910;2023-02-01T09:08:17;98955.72;;;2.97;100.00
35331;BME280;21441;52.190;20.910;2023-02-01T09:10:45;98918.84;;;2.79;100.00
35331;BME280;21441;52.190;20.910;2023-02-01T09:13:13;98946.66;;;2.99;100.00
35331;BME280;21441;52.190;20.910;2023-02-01T09:15:40;98964.50;;;3.05;100.00
35331;BME280;21441;52.190;20.910;2023-02-01T09:18:09;98934.78;;;2.95;100.00
35331;BME280;21441;52.190;20.910;2023-02-01T09:20:37;98963.03;;;3.11;100.00
35331;BME280;21441;52.190;20.910;2023-02-01T09:23:04;98951.16;;;3.07;100.00
35331;BME280;21441;52.190;20.910;2023-02-01T09:25:33;98957.84;;;3.19;100.00
35331;BME280;21441;52.190;20.910;2023-02-01T09:28:03;98964.75;;;3.20;100.00
35331;BME280;21441;52.190;20.910;2023-02-01T09:30:36;98948.06;;;3.12;100.00
35331;BME280;21441;52.190;20.910;2023-02-01T09:33:04;98947.34;;;3.27;100.00
35331;BME280;21441;52.190;20.910;2023-02-01T09:35:32;98973.78;;;3.18;100.00
35331;BME280;21441;52.190;20.910;2023-02-01T09:38:00;98948.94;;;3.20;100.00
35331;BME280;21441;52.190;20.910;2023-02-01T09:40:27;98954.41;;;3.27;100.00
35331;BME280;21441;52.190;20.910;2023-02-01T09:43:09;98943.00;;;3.18;100.00
35331;BME280;21441;52.190;20.910;2023-02-01T09:45:45;98955.88;;;3.21;100.00
35331;BME280;21441;52.190;20.910;2023-02-01T09:48:19;98940.78;;;3.32;100.00
35331;BME280;21441;52.190;20.910;2023-02-01T09:50:53;98924.03;;;3.41;100.00
35331;BME280;21441;52.190;20.910;2023-02-01T09:53:25;98947.69;;;3.33;100.00
35331;BME280;21441;52.190;20.910;2023-02-01T09:55:57;98896.94;;;3.30;100.00
35331;BME280;21441;52.190;20.910;2023-02-01T09:58:30;98948.00;;;3.98;100.00
35331;BME280;21441;52.190;20.910;2023-02-01T10:01:03;98940.78;;;4.17;100.00
35331;BME280;21441;52.190;20.910;2023-02-01T10:03:33;98920.47;;;4.09;100.00
35331;BME280;21441;52.190;20.910;2023-02-01T10:06:28;98905.97;;;4.29;100.00
35331;BME280;21441;52.190;20.910;2023-02-01T10:09:12;98898.56;;;4.33;100.00
35331;BME280;21441;52.190;20.910;2023-02-01T10:11:56;98941.41;;;4.10;100.00
35331;BME280;21441;52.190;20.910;2023-02-01T10:14:43;98921.06;;;3.86;100.00
35331;BME280;21441;52.190;20.910;2023-02-01T10:17:23;98927.47;;;3.76;100.00
35331;BME280;21441;52.190;20.910;2023-02-01T10:20:00;98920.50;;;3.66;100.00
35331;BME280;21441;52.190;20.910;2023-02-01T10:22:40;98916.22;;;3.65;100.00
35331;BME280;21441;52.190;20.910;2023-02-01T10:25:14;98909.94;;;3.66;100.00
35331;BME280;21441;52.190;20.910;2023-02-01T10:27:45;98922.34;;;3.74;100.00
35331;BME280;21441;52.190;20.910;2023-02-01T10:30:19;98929.41;;;3.65;100.00
35331;BME280;21441;52.190;20.910;2023-02-01T10:32:48;98932.38;;;3.62;100.00
35331;BME280;21441;52.190;20.910;2023-02-01T10:35:18;98941.88;;;3.55;100.00
35331;BME280;21441;52.190;20.910;2023-02-01T10:37:50;98950.94;;;3.53;100.00
35331;BME280;21441;52.190;20.910;2023-02-01T10:40:20;98949.44;;;3.50;100.00
35331;BME280;21441;52.190;20.910;2023-02-01T10:42:50;98934.50;;;3.59;100.00
35331;BME280;21441;52.190;20.910;2023-02-01T10:45:21;98938.75;;;3.60;100.00
35331;BME280;21441;52.190;20.910;2023-02-01T10:47:51;98928.69;;;3.47;100.00
35331;BME280;21441;52.190;20.910;2023-02-01T10:50:30;98952.28;;;3.57;100.00
35331;BME280;21441;52.190;20.910;2023-02-01T10:53:04;98908.53;;;3.46;100.00
35331;BME280;21441;52.190;20.910;2023-02-01T10:55:39;98945.34;;;3.56;100.00
35331;BME280;21441;52.190;20.910;2023-02-01T10:58:13;98915.25;;;3.40;100.00
35331;BME280;21441;52.190;20.910;2023-02-01T11:00:44;98933.69;;;3.32;100.00
35331;BME280;21441;52.190;20.910;2023-02-01T11:03:37;98943.97;;;3.43;100.00
35331;BME280;21441;52.190;20.910;2023-02-01T11:06:18;98918.34;;;3.62;100.00
35331;BME280;21441;52.190;20.910;2023-02-01T11:08:49;98930.84;;;4.10;100.00
35331;BME280;21441;52.190;20.910;2023-02-01T11:11:18;98903.31;;;5.59;100.00
35331;BME280;21441;52.190;20.910;2023-02-01T11:13:52;98918.75;;;7.25;100.00
35331;BME280;21441;52.190;20.910;2023-02-01T11:16:19;98888.81;;;7.61;100.00
35331;BME280;21441;52.190;20.910;2023-02-01T11:18:53;98904.19;;;7.51;97.35
35331;BME280;21441;52.190;20.910;2023-02-01T11:21:21;98910.78;;;6.72;100.00
35331;BME280;21441;52.190;20.910;2023-02-01T11:23:51;98920.22;;;5.97;100.00
35331;BME280;21441;52.190;20.910;2023-02-01T11:26:22;98935.53;;;5.07;100.00
35331;BME280;21441;52.190;20.910;2023-02-01T11:28:54;98911.97;;;4.72;100.00
35331;BME280;21441;52.190;20.910;2023-02-01T11:31:24;98924.28;;;5.05;100.00
35331;BME280;21441;52.190;20.910;2023-02-01T11:33:53;98925.72;;;5.40;100.00
35331;BME280;21441;52.190;20.910;2023-02-01T11:36:26;98925.56;;;5.81;100.00
35331;BME280;21441;52.190;20.910;2023-02-01T11:39:09;98921.28;;;5.32;100.00
35331;BME280;21441;52.190;20.910;2023-02-01T11:41:41;98907.66;;;4.80;100.00
35331;BME280;21441;52.190;20.910;2023-02-01T11:44:30;98918.38;;;4.86;100.00
35331;BME280;21441;52.190;20.910;2023-02-01T11:47:18;98909.50;;;5.83;100.00
35331;BME280;21441;52.190;20.910;2023-02-01T11:49:45;98890.69;;;6.32;100.00
35331;BME280;21441;52.190;20.910;2023-02-01T11:52:20;98892.19;;;8.64;82.14
35331;BME280;21441;52.190;20.910;2023-02-01T11:55:12;98885.34;;;10.56;62.82
35331;BME280;21441;52.190;20.910;2023-02-01T11:57:54;98813.22;;;9.27;61.93
35331;BME280;21441;52.190;20.910;2023-02-01T12:00:34;98869.56;;;5.69;96.52
35331;BME280;21441;52.190;20.910;2023-02-01T12:06:25;98894.06;;;5.07;100.00
35331;BME280;21441;52.190;20.910;2023-02-01T12:09:11;98907.50;;;4.81;100.00
35331;BME280;21441;52.190;20.910;2023-02-01T12:11:50;98889.81;;;4.41;100.00
35331;BME280;21441;52.190;20.910;2023-02-01T12:14:34;98884.22;;;4.36;100.00
35331;BME280;21441;52.190;20.910;2023-02-01T12:17:28;98883.06;;;4.22;100.00
35331;BME280;21441;52.190;20.910;2023-02-01T12:20:15;98869.00;;;4.05;100.00
35331;BME280;21441;52.190;20.910;2023-02-01T12:22:58;98870.31;;;4.17;100.00
35331;BME280;21441;52.190;20.910;2023-02-01T12:25:40;98874.59;;;4.10;100.00
35331;BME280;21441;52.190;20.910;2023-02-01T12:28:31;98873.09;;;3.99;100.00
35331;BME280;21441;52.190;20.910;2023-02-01T12:31:26;98884.34;;;4.26;100.00
35331;BME280;21441;52.190;20.910;2023-02-01T12:34:16;98862.25;;;4.27;100.00
35331;BME280;21441;52.190;20.910;2023-02-01T12:36:53;98880.19;;;3.99;100.00
35331;BME280;21441;52.190;20.910;2023-02-01T12:39:26;98856.78;;;3.96;100.00
35331;BME280;21441;52.190;20.910;2023-02-01T12:42:01;98869.31;;;4.02;100.00
35331;BME280;21441;52.190;20.910;2023-02-01T12:44:41;98873.28;;;4.06;100.00
35331;BME280;21441;52.190;20.910;2023-02-01T12:47:16;98887.97;;;4.00;100.00
35331;BME280;21441;52.190;20.910;2023-02-01T12:49:49;98879.88;;;3.93;100.00
35331;BME280;21441;52.190;20.910;2023-02-01T12:52:25;98863.19;;;3.85;100.00
35331;BME280;21441;52.190;20.910;2023-02-01T12:54:59;98877.72;;;3.89;100.00
35331;BME280;21441;52.190;20.910;2023-02-01T12:57:30;98864.50;;;3.81;100.00
35331;BME280;21441;52.190;20.910;2023-02-01T13:00:06;98872.25;;;3.82;100.00
35331;BME280;21441;52.190;20.910;2023-02-01T13:02:41;98864.53;;;4.05;100.00
35331;BME280;21441;52.190;20.910;2023-02-01T13:05:15;98882.22;;;4.38;100.00
35331;BME280;21441;52.190;20.910;2023-02-01T13:07:48;98874.59;;;4.02;100.00
35331;BME280;21441;52.190;20.910;2023-02-01T13:10:20;98875.47;;;4.27;100.00
35331;BME280;21441;52.190;20.910;2023-02-01T13:12:53;98889.97;;;4.23;100.00
35331;BME280;21441;52.190;20.910;2023-02-01T13:15:27;98896.06;;;4.07;100.00
35331;BME280;21441;52.190;20.910;2023-02-01T13:18:00;98878.19;;;3.76;100.00
35331;BME280;21441;52.190;20.910;2023-02-01T13:20:30;98886.56;;;3.71;100.00